createdAt,value
2023-11-18T00:00:13.469Z,15.15
2023-11-18T00:02:44.192Z,15.82
2023-11-18T00:05:14.943Z,14.13
2023-11-18T00:07:43.137Z,15.30
2023-11-18T00:10:12.091Z,14.57
2023-11-18T00:12:42.868Z,15.15
2023-11-18T00:15:13.197Z,14.38
2023-11-18T00:17:41.474Z,14.73
2023-11-18T00:20:13.577Z,15.57
2023-11-18T00:22:43.610Z,14.73
2023-11-18T00:25:12.124Z,15.32
2023-11-18T00:27:40.129Z,14.38
2023-11-18T00:30:11.971Z,15.38
2023-11-18T00:32:40.160Z,15.55
2023-11-18T00:35:09.685Z,14.43
2023-11-18T00:37:37.575Z,14.15
2023-11-18T00:40:09.116Z,14.68
2023-11-18T00:42:37.220Z,13.98
2023-11-18T00:45:06.119Z,14.32
2023-11-18T00:47:34.134Z,13.60
2023-11-18T00:50:03.352Z,13.63
2023-11-18T00:52:31.314Z,14.48
2023-11-18T00:54:59.220Z,13.82
2023-11-18T00:57:28.522Z,14.63
2023-11-18T00:59:58.281Z,14.73
2023-11-18T01:02:26.262Z,14.00
2023-11-18T01:04:54.197Z,13.82
2023-11-18T01:07:22.002Z,13.07
2023-11-18T01:09:51.158Z,13.90
2023-11-18T01:12:19.008Z,13.48
2023-11-18T01:14:48.191Z,13.13
2023-11-18T01:17:16.371Z,13.05
2023-11-18T01:19:45.061Z,14.60
2023-11-18T01:22:12.965Z,12.55
2023-11-18T01:24:40.951Z,11.95
2023-11-18T01:27:10.854Z,11.38
2023-11-18T01:29:39.933Z,12.13
2023-11-18T01:32:10.922Z,12.02
2023-11-18T01:34:40.312Z,13.70
2023-11-18T01:37:08.666Z,12.63
2023-11-18T01:39:37.002Z,12.88
2023-11-18T01:42:05.258Z,11.93
2023-11-18T01:44:34.986Z,11.57
2023-11-18T01:47:07.073Z,11.40
2023-11-18T01:49:41.054Z,12.38
2023-11-18T01:52:09.867Z,11.68
2023-11-18T01:54:40.410Z,15.30
2023-11-18T01:57:10.589Z,12.50
2023-11-18T01:59:39.468Z,11.45
2023-11-18T02:02:07.504Z,11.27
2023-11-18T02:04:38.094Z,11.07
2023-11-18T02:07:10.288Z,11.50
2023-11-18T02:09:38.745Z,11.07
2023-11-18T02:12:18.368Z,11.75
2023-11-18T02:14:47.228Z,11.45
2023-11-18T02:17:19.369Z,11.73
2023-11-18T02:19:49.233Z,11.07
2023-11-18T02:22:17.645Z,11.50
2023-11-18T02:24:45.439Z,10.65
2023-11-18T02:27:15.243Z,12.52
2023-11-18T02:29:46.406Z,11.85
2023-11-18T02:32:24.322Z,12.38
2023-11-18T02:34:59.608Z,11.93
2023-11-18T02:37:28.267Z,11.77
2023-11-18T02:40:09.379Z,12.93
2023-11-18T02:42:40.362Z,13.13
2023-11-18T02:45:13.487Z,11.95
2023-11-18T02:47:41.517Z,12.80
2023-11-18T02:50:12.014Z,12.05
2023-11-18T02:52:40.052Z,12.20
2023-11-18T02:55:09.047Z,12.55
2023-11-18T02:57:38.665Z,12.27
2023-11-18T03:00:13.023Z,13.07
2023-11-18T03:02:41.420Z,13.15
2023-11-18T03:05:12.810Z,12.98
2023-11-18T03:07:40.810Z,13.00
2023-11-18T03:10:12.507Z,13.98
2023-11-18T03:12:41.922Z,13.15
2023-11-18T03:15:12.862Z,13.18
2023-11-18T03:17:40.970Z,14.10
2023-11-18T03:20:10.826Z,13.30
2023-11-18T03:22:38.766Z,14.57
2023-11-18T03:25:08.843Z,14.30
2023-11-18T03:27:36.667Z,14.60
2023-11-18T03:30:07.846Z,14.05
2023-11-18T03:32:36.305Z,14.82
2023-11-18T03:35:05.591Z,16.48
2023-11-18T03:37:33.487Z,15.80
2023-11-18T03:40:01.323Z,14.80
2023-11-18T03:42:30.228Z,14.70
2023-11-18T03:45:00.891Z,15.07
2023-11-18T03:47:31.430Z,15.73
2023-11-18T03:49:59.640Z,16.77
2023-11-18T03:52:28.773Z,16.65
2023-11-18T03:54:57.193Z,16.10
2023-11-18T03:57:25.566Z,16.48
2023-11-18T03:59:53.397Z,15.90
2023-11-18T04:02:21.305Z,17.27
2023-11-18T04:04:51.002Z,16.17
2023-11-18T04:07:18.870Z,16.35
2023-11-18T04:09:46.667Z,16.35
2023-11-18T04:12:16.097Z,15.77
2023-11-18T04:14:43.925Z,16.70
2023-11-18T04:17:10.937Z,15.82
2023-11-18T04:19:40.242Z,16.17
2023-11-18T04:22:10.615Z,16.13
2023-11-18T04:24:38.460Z,16.85
2023-11-18T04:27:06.323Z,15.38
2023-11-18T04:29:34.240Z,19.15
2023-11-18T04:32:02.903Z,16.58
2023-11-18T04:34:30.820Z,16.98
2023-11-18T04:36:58.674Z,15.73
2023-11-18T04:39:29.365Z,15.18
2023-11-18T04:41:57.704Z,17.25
2023-11-18T04:44:26.157Z,15.23
2023-11-18T04:46:53.989Z,15.32
2023-11-18T04:49:21.945Z,16.55
2023-11-18T04:51:49.867Z,15.18
2023-11-18T04:54:17.699Z,16.60
2023-11-18T04:56:47.286Z,15.25
2023-11-18T04:59:15.106Z,15.07
2023-11-18T05:01:43.233Z,15.43
2023-11-18T05:04:12.077Z,16.10
2023-11-18T05:06:39.962Z,16.48
2023-11-18T05:09:08.865Z,16.25
2023-11-18T05:11:37.023Z,14.77
2023-11-18T05:14:08.212Z,14.50
2023-11-18T05:16:36.260Z,14.82
2023-11-18T05:19:04.200Z,15.70
2023-11-18T05:21:31.980Z,13.98
2023-11-18T05:23:59.778Z,13.98
2023-11-18T05:26:28.012Z,13.30
2023-11-18T05:28:56.010Z,14.13
2023-11-18T05:31:25.308Z,14.60
2023-11-18T05:33:59.327Z,14.20
2023-11-18T05:36:29.250Z,15.30
2023-11-18T05:38:57.281Z,14.25
2023-11-18T05:41:28.926Z,14.25
2023-11-18T05:43:58.758Z,16.92
2023-11-18T05:46:31.234Z,15.38
2023-11-18T05:49:01.152Z,14.98
2023-11-18T05:51:30.389Z,15.30
2023-11-18T05:54:00.748Z,14.70
2023-11-18T05:56:28.580Z,15.20
2023-11-18T05:58:56.794Z,14.73
2023-11-18T06:01:25.372Z,15.00
2023-11-18T06:03:54.922Z,18.20
2023-11-18T06:06:24.784Z,14.95
2023-11-18T06:08:54.453Z,14.95
2023-11-18T06:11:24.413Z,14.65
2023-11-18T06:13:54.028Z,15.45
2023-11-18T06:16:23.251Z,15.63
2023-11-18T06:18:52.743Z,14.60
2023-11-18T06:21:25.809Z,13.18
2023-11-18T06:23:56.112Z,13.57
2023-11-18T06:26:25.646Z,13.18
2023-11-18T06:28:53.658Z,13.80
2023-11-18T06:31:21.751Z,15.55
2023-11-18T06:33:50.477Z,13.88
2023-11-18T06:36:24.615Z,13.15
2023-11-18T06:38:53.665Z,14.95
2023-11-18T06:41:24.399Z,15.90
2023-11-18T06:44:02.147Z,12.48
2023-11-18T06:46:35.002Z,12.50
2023-11-18T06:49:05.262Z,13.03
2023-11-18T06:51:38.895Z,12.57
2023-11-18T06:54:10.458Z,12.15
2023-11-18T06:56:40.261Z,13.60
2023-11-18T06:59:09.108Z,13.27
2023-11-18T07:01:37.567Z,12.65
2023-11-18T07:04:09.841Z,12.02
2023-11-18T07:06:40.258Z,11.30
2023-11-18T07:09:14.384Z,11.63
2023-11-18T07:11:43.106Z,12.80
2023-11-18T07:14:11.380Z,11.70
2023-11-18T07:16:40.647Z,13.45
2023-11-18T07:19:08.790Z,12.45
2023-11-18T07:21:36.977Z,11.73
2023-11-18T07:24:07.858Z,11.02
2023-11-18T07:26:35.687Z,11.90
2023-11-18T07:29:03.591Z,10.38
2023-11-18T07:31:31.454Z,9.90
2023-11-18T07:33:59.285Z,10.10
2023-11-18T07:36:27.113Z,10.70
2023-11-18T07:38:56.344Z,9.73
2023-11-18T07:41:30.964Z,10.75
2023-11-18T07:44:01.789Z,9.45
2023-11-18T07:46:32.144Z,10.23
2023-11-18T07:49:02.783Z,10.05
2023-11-18T07:51:30.795Z,11.43
2023-11-18T07:53:59.746Z,10.10
2023-11-18T07:56:30.023Z,9.45
2023-11-18T07:58:59.831Z,9.38
2023-11-18T08:01:28.420Z,9.23
2023-11-18T08:03:57.587Z,8.57
2023-11-18T08:06:27.776Z,8.70
2023-11-18T08:08:58.881Z,8.48
2023-11-18T08:11:28.156Z,8.95
2023-11-18T08:13:56.029Z,7.70
2023-11-18T08:16:23.966Z,7.93
2023-11-18T08:18:51.808Z,8.13
2023-11-18T08:21:19.605Z,7.85
2023-11-18T08:23:47.463Z,7.93
2023-11-18T08:26:15.370Z,7.50
2023-11-18T08:28:44.588Z,8.15
2023-11-18T08:31:16.904Z,7.50
2023-11-18T08:33:47.685Z,8.23
2023-11-18T08:36:15.610Z,7.50
2023-11-18T08:38:45.362Z,7.00
2023-11-18T08:41:13.458Z,7.35
2023-11-18T08:43:42.218Z,7.00
2023-11-18T08:46:11.601Z,6.32
2023-11-18T08:48:39.844Z,8.20
2023-11-18T08:51:10.636Z,6.72
2023-11-18T08:53:42.425Z,6.43
2023-11-18T08:56:14.872Z,6.65
2023-11-18T08:58:46.045Z,6.32
2023-11-18T09:01:16.210Z,5.72
2023-11-18T09:03:53.953Z,6.55
2023-11-18T09:06:27.153Z,5.70
2023-11-18T09:08:59.419Z,6.60
2023-11-18T09:11:33.620Z,5.85
2023-11-18T09:16:39.622Z,5.60
2023-11-18T09:19:07.532Z,5.47
2023-11-18T09:21:37.531Z,5.07
2023-11-18T09:24:08.847Z,5.72
2023-11-18T09:26:36.853Z,5.40
2023-11-18T09:29:04.786Z,6.53
2023-11-18T09:31:34.779Z,5.03
2023-11-18T09:34:05.237Z,5.95
2023-11-18T09:36:34.797Z,5.05
2023-11-18T09:39:04.415Z,4.78
2023-11-18T09:41:34.629Z,6.18
2023-11-18T09:44:03.711Z,5.18
2023-11-18T09:46:34.529Z,5.00
2023-11-18T09:49:17.014Z,5.68
2023-11-18T09:51:48.121Z,5.10
2023-11-18T09:54:23.477Z,7.25
2023-11-18T09:56:58.582Z,4.68
2023-11-18T09:59:36.079Z,4.28
2023-11-18T10:02:06.291Z,4.20
2023-11-18T10:04:38.655Z,5.05
2023-11-18T10:07:08.259Z,4.35
2023-11-18T10:09:38.653Z,5.78
2023-11-18T10:12:07.557Z,4.78
2023-11-18T10:14:36.097Z,5.40
2023-11-18T10:17:07.905Z,4.57
2023-11-18T10:19:53.756Z,4.40
2023-11-18T10:22:25.374Z,3.53
2023-11-18T10:24:55.692Z,6.38
2023-11-18T10:27:27.353Z,4.20
2023-11-18T10:29:58.171Z,3.67
2023-11-18T10:32:29.006Z,3.92
2023-11-18T10:35:00.038Z,3.67
2023-11-18T10:37:32.483Z,4.20
2023-11-18T10:40:06.773Z,4.75
2023-11-18T10:42:34.822Z,3.90
2023-11-18T10:45:04.470Z,3.65
2023-11-18T10:47:36.661Z,3.58
2023-11-18T10:50:11.219Z,3.95
2023-11-18T10:52:42.526Z,4.28
2023-11-18T10:55:13.661Z,5.03
2023-11-18T10:57:43.696Z,4.22
2023-11-18T11:00:16.043Z,3.67
2023-11-18T11:02:44.813Z,3.45
2023-11-18T11:05:20.978Z,3.60
2023-11-18T11:07:51.381Z,3.58
2023-11-18T11:10:26.248Z,3.20
2023-11-18T11:12:58.538Z,3.10
2023-11-18T11:15:42.046Z,3.40
2023-11-18T11:18:24.610Z,3.80
2023-11-18T11:21:05.343Z,3.90
2023-11-18T11:23:45.260Z,3.67
2023-11-18T11:26:24.113Z,4.80
2023-11-18T11:28:58.371Z,5.05
2023-11-18T11:31:34.457Z,3.08
2023-11-18T11:34:08.375Z,3.78
2023-11-18T11:36:42.750Z,3.75
2023-11-18T11:39:18.188Z,3.10
2023-11-18T11:41:48.896Z,3.50
2023-11-18T11:44:17.070Z,3.78
2023-11-18T11:46:45.569Z,4.80
2023-11-18T11:49:21.902Z,3.90
2023-11-18T11:51:56.794Z,4.43
2023-11-18T11:54:30.373Z,2.85
2023-11-18T11:57:01.999Z,3.80
2023-11-18T11:59:57.367Z,3.28
2023-11-18T12:02:30.562Z,2.80
2023-11-18T12:05:00.357Z,3.20
2023-11-18T12:07:30.380Z,2.90
2023-11-18T12:09:58.831Z,2.97
2023-11-18T12:12:28.236Z,2.75
2023-11-18T12:14:58.801Z,2.55
2023-11-18T12:17:33.141Z,4.13
2023-11-18T12:20:06.887Z,2.80
2023-11-18T12:23:15.246Z,3.05
2023-11-18T12:25:43.659Z,2.47
2023-11-18T12:28:12.279Z,2.33
2023-11-18T12:30:45.021Z,2.33
2023-11-18T12:33:19.996Z,2.63
2023-11-18T12:36:36.366Z,2.60
2023-11-18T12:39:43.462Z,2.92
2023-11-18T12:42:36.081Z,2.38
2023-11-18T12:45:27.847Z,2.67
2023-11-18T12:47:59.354Z,2.75
2023-11-18T12:50:29.971Z,3.53
2023-11-18T12:52:58.661Z,3.50
2023-11-18T12:55:27.742Z,2.38
2023-11-18T12:57:56.943Z,2.33
2023-11-18T13:00:28.770Z,2.05
2023-11-18T13:02:59.263Z,1.63
2023-11-18T13:05:30.979Z,2.22
2023-11-18T13:08:00.506Z,1.95
2023-11-18T13:10:28.594Z,1.98
2023-11-18T13:12:59.138Z,2.40
2023-11-18T13:15:27.552Z,1.80
2023-11-18T13:18:03.831Z,1.52
2023-11-18T13:20:34.827Z,1.70
2023-11-18T13:23:09.662Z,1.80
2023-11-18T13:25:40.236Z,2.63
2023-11-18T13:28:11.961Z,2.38
2023-11-18T13:30:41.238Z,1.98
2023-11-18T13:33:09.902Z,2.47
2023-11-18T13:35:38.248Z,1.67
2023-11-18T13:38:06.932Z,1.90
2023-11-18T13:40:45.040Z,1.83
2023-11-18T13:43:14.469Z,1.63
2023-11-18T13:45:43.868Z,1.65
2023-11-18T13:48:14.786Z,1.38
2023-11-18T13:50:44.033Z,1.40
2023-11-18T13:53:13.746Z,1.52
2023-11-18T13:55:42.432Z,1.27
2023-11-18T13:58:11.794Z,1.35
2023-11-18T14:00:43.234Z,1.65
2023-11-18T14:03:13.235Z,1.27
2023-11-18T14:05:41.255Z,2.50
2023-11-18T14:08:11.555Z,1.13
2023-11-18T14:10:42.043Z,1.23
2023-11-18T14:13:13.999Z,1.00
2023-11-18T14:15:46.029Z,1.10
2023-11-18T14:18:15.413Z,1.13
2023-11-18T14:20:43.469Z,1.08
2023-11-18T14:23:12.583Z,1.90
2023-11-18T14:25:40.471Z,1.10
2023-11-18T14:28:09.717Z,1.27
2023-11-18T14:30:37.865Z,1.15
2023-11-18T14:33:08.152Z,1.30
2023-11-18T14:35:36.518Z,1.00
2023-11-18T14:38:04.889Z,1.20
2023-11-18T14:40:33.657Z,1.25
2023-11-18T14:43:01.803Z,1.50
2023-11-18T14:45:29.917Z,1.13
2023-11-18T14:47:57.844Z,1.38
2023-11-18T14:50:28.610Z,1.33
2023-11-18T14:53:01.310Z,1.10
2023-11-18T14:55:30.395Z,1.33
2023-11-18T14:57:58.447Z,1.20
2023-11-18T15:00:28.564Z,1.00
2023-11-18T15:02:59.953Z,1.90
2023-11-18T15:05:30.289Z,2.83
2023-11-18T15:08:00.371Z,1.50
2023-11-18T15:10:29.532Z,1.05
2023-11-18T15:12:59.756Z,1.10
2023-11-18T15:15:33.663Z,1.10
2023-11-18T15:18:06.181Z,1.45
2023-11-18T15:20:35.736Z,2.90
2023-11-18T15:23:03.990Z,1.60
2023-11-18T15:25:31.873Z,1.30
2023-11-18T15:28:00.714Z,1.30
2023-11-18T15:30:29.229Z,1.30
2023-11-18T15:32:59.821Z,1.00
2023-11-18T15:35:29.661Z,1.65
2023-11-18T15:37:58.909Z,2.22
2023-11-18T15:40:27.365Z,1.63
2023-11-18T15:42:58.774Z,4.88
2023-11-18T15:45:27.732Z,1.23
2023-11-18T15:47:55.712Z,1.77
2023-11-18T15:50:23.626Z,1.80
2023-11-18T15:52:53.262Z,1.50
2023-11-18T15:55:22.883Z,1.40
2023-11-18T15:57:53.878Z,1.58
2023-11-18T16:00:25.639Z,1.75
2023-11-18T16:02:58.434Z,1.48
2023-11-18T16:05:34.602Z,1.70
2023-11-18T16:08:03.511Z,1.88
2023-11-18T16:10:32.760Z,1.90
2023-11-18T16:13:01.701Z,1.73
2023-11-18T16:15:31.232Z,1.85
2023-11-18T16:18:00.584Z,1.75
2023-11-18T16:20:33.311Z,2.20
2023-11-18T16:23:04.086Z,2.17
2023-11-18T16:25:35.974Z,2.28
2023-11-18T16:28:05.326Z,2.67
2023-11-18T16:30:34.031Z,2.58
2023-11-18T16:33:04.608Z,2.90
2023-11-18T16:35:33.072Z,3.00
2023-11-18T16:38:02.338Z,3.00
2023-11-18T16:40:31.135Z,4.55
2023-11-18T16:43:01.248Z,3.75
2023-11-18T16:45:29.907Z,4.68
2023-11-18T16:47:57.927Z,4.93
2023-11-18T16:50:27.843Z,5.55
2023-11-18T16:52:56.782Z,5.72
2023-11-18T16:55:25.200Z,6.95
2023-11-18T16:57:54.734Z,7.13
2023-11-18T17:00:24.990Z,7.88
2023-11-18T17:02:56.985Z,7.75
2023-11-18T17:05:26.987Z,8.30
2023-11-18T17:07:55.560Z,8.40
2023-11-18T17:10:24.488Z,9.68
2023-11-18T17:12:52.986Z,10.43
2023-11-18T17:15:21.332Z,12.57
2023-11-18T17:17:54.825Z,13.05
2023-11-18T17:20:23.132Z,13.65
2023-11-18T17:22:52.685Z,8.90
2023-11-18T17:25:24.439Z,8.77
2023-11-18T17:27:54.330Z,8.48
2023-11-18T17:30:22.549Z,8.65
2023-11-18T17:32:53.180Z,9.25
2023-11-18T17:35:22.257Z,8.85
2023-11-18T17:37:50.578Z,9.32
2023-11-18T17:40:22.541Z,9.38
2023-11-18T17:42:54.360Z,9.55
2023-11-18T17:45:25.406Z,8.82
2023-11-18T17:47:55.022Z,9.13
2023-11-18T17:50:23.788Z,9.43
2023-11-18T17:52:52.393Z,8.45
2023-11-18T17:55:20.464Z,8.45
2023-11-18T17:57:48.609Z,9.50
2023-11-18T18:00:23.402Z,10.23
2023-11-18T18:02:52.791Z,8.15
2023-11-18T18:05:22.311Z,8.32
2023-11-18T18:07:50.123Z,8.27
2023-11-18T18:10:18.480Z,9.40
2023-11-18T18:12:48.036Z,11.45
2023-11-18T18:15:16.297Z,10.63
2023-11-18T18:17:44.499Z,10.40
2023-11-18T18:20:15.029Z,9.27
2023-11-18T18:22:44.787Z,9.07
2023-11-18T18:25:13.523Z,8.73
2023-11-18T18:27:42.105Z,8.57
2023-11-18T18:30:11.439Z,8.98
2023-11-18T18:32:39.568Z,10.52
2023-11-18T18:35:08.374Z,11.15
2023-11-18T18:37:36.290Z,10.02
2023-11-18T18:40:06.183Z,10.63
2023-11-18T18:42:34.312Z,10.10
2023-11-18T18:45:02.306Z,10.30
2023-11-18T18:47:30.896Z,11.80
2023-11-18T18:49:59.331Z,12.70
2023-11-18T18:52:27.252Z,11.57
2023-11-18T18:54:55.344Z,11.98
2023-11-18T18:57:25.599Z,11.27
2023-11-18T18:59:53.446Z,13.00
2023-11-18T19:02:21.485Z,11.32
2023-11-18T19:04:50.179Z,10.82
2023-11-18T19:07:19.596Z,10.68
2023-11-18T19:09:47.612Z,13.40
2023-11-18T19:12:15.447Z,11.38
2023-11-18T19:14:44.697Z,14.55
2023-11-18T19:17:14.684Z,13.35
2023-11-18T19:19:42.689Z,12.60
2023-11-18T19:22:10.498Z,11.32
2023-11-18T19:24:39.681Z,11.75
2023-11-18T19:27:12.119Z,11.90
2023-11-18T19:29:43.065Z,11.63
2023-11-18T19:32:13.735Z,12.55
2023-11-18T19:34:41.573Z,11.73
2023-11-18T19:37:12.050Z,10.70
2023-11-18T19:39:41.475Z,11.98
2023-11-18T19:42:10.022Z,11.20
2023-11-18T19:44:38.187Z,11.30
2023-11-18T19:47:08.142Z,11.93
2023-11-18T19:49:37.687Z,11.40
2023-11-18T19:52:08.118Z,11.38
2023-11-18T19:54:36.320Z,10.88
2023-11-18T19:57:05.004Z,11.93
2023-11-18T19:59:33.953Z,13.13
2023-11-18T20:02:02.208Z,11.65
2023-11-18T20:04:31.309Z,11.80
2023-11-18T20:07:00.685Z,12.02
2023-11-18T20:09:28.660Z,12.02
2023-11-18T20:12:04.692Z,15.55
2023-11-18T20:14:34.297Z,13.15
2023-11-18T20:17:02.332Z,13.50
2023-11-18T20:19:30.416Z,13.68
2023-11-18T20:21:58.293Z,12.85
2023-11-18T20:24:27.520Z,12.77
2023-11-18T20:26:55.302Z,14.00
2023-11-18T20:29:23.126Z,14.32
2023-11-18T20:31:51.015Z,14.57
2023-11-18T20:34:19.257Z,15.50
2023-11-18T20:36:47.825Z,14.88
2023-11-18T20:39:18.791Z,14.68
2023-11-18T20:41:49.551Z,14.85
2023-11-18T20:44:17.866Z,14.38
2023-11-18T20:46:46.745Z,14.25
2023-11-18T20:49:15.085Z,14.55
2023-11-18T20:51:42.889Z,13.52
2023-11-18T20:54:10.708Z,14.23
2023-11-18T20:56:38.669Z,14.20
2023-11-18T20:59:07.889Z,14.40
2023-11-18T21:01:35.686Z,13.65
2023-11-18T21:04:03.764Z,14.20
2023-11-18T21:06:32.088Z,14.70
2023-11-18T21:09:00.554Z,15.60
2023-11-18T21:11:28.575Z,14.75
2023-11-18T21:13:56.792Z,15.02
2023-11-18T21:16:26.026Z,13.88
2023-11-18T21:18:53.836Z,12.77
2023-11-18T21:21:22.841Z,12.90
2023-11-18T21:23:51.123Z,13.05
2023-11-18T21:26:21.079Z,13.52
2023-11-18T21:28:49.289Z,13.05
2023-11-18T21:31:18.017Z,12.57
2023-11-18T21:33:47.195Z,11.77
2023-11-18T21:36:15.393Z,12.07
2023-11-18T21:38:52.743Z,12.55
2023-11-18T21:41:20.888Z,11.65
2023-11-18T21:43:48.689Z,10.82
2023-11-18T21:46:16.471Z,11.25
2023-11-18T21:48:45.220Z,10.52
2023-11-18T21:51:14.822Z,14.45
2023-11-18T21:53:44.248Z,11.30
2023-11-18T21:56:12.112Z,10.38
2023-11-18T21:58:39.918Z,10.90
2023-11-18T22:01:07.953Z,11.07
2023-11-18T22:03:36.206Z,10.77
2023-11-18T22:06:04.132Z,10.73
2023-11-18T22:08:34.769Z,10.13
2023-11-18T22:11:02.716Z,9.60
2023-11-18T22:13:31.907Z,11.23
2023-11-18T22:16:00.046Z,10.27
2023-11-18T22:18:27.922Z,11.10
2023-11-18T22:20:56.596Z,9.65
2023-11-18T22:23:24.412Z,10.13
2023-11-18T22:25:53.529Z,9.75
2023-11-18T22:28:21.307Z,9.48
2023-11-18T22:30:49.117Z,8.20
2023-11-18T22:33:25.311Z,7.75
2023-11-18T22:35:55.061Z,8.15
2023-11-18T22:38:24.114Z,8.95
2023-11-18T22:40:53.368Z,6.63
2023-11-18T22:43:24.944Z,6.72
2023-11-18T22:45:52.896Z,6.20
2023-11-18T22:48:22.179Z,6.30
2023-11-18T22:50:50.197Z,6.30
2023-11-18T22:53:19.066Z,4.90
2023-11-18T22:55:48.678Z,5.95
2023-11-18T22:58:18.103Z,5.20
2023-11-18T23:00:52.136Z,5.53
2023-11-18T23:03:20.658Z,5.22
2023-11-18T23:05:49.085Z,5.15
2023-11-18T23:08:22.986Z,4.95
2023-11-18T23:10:52.285Z,5.28
2023-11-18T23:13:23.976Z,4.78
2023-11-18T23:15:56.711Z,5.82
2023-11-18T23:18:24.761Z,5.05
2023-11-18T23:20:52.577Z,5.22
2023-11-18T23:23:21.360Z,5.53
2023-11-18T23:25:49.313Z,4.68
2023-11-18T23:28:18.085Z,4.47
2023-11-18T23:30:47.517Z,5.05
2023-11-18T23:33:15.350Z,4.15
2023-11-18T23:35:44.321Z,5.32
2023-11-18T23:38:12.089Z,4.28
2023-11-18T23:40:42.305Z,5.32
2023-11-18T23:43:10.136Z,4.47
2023-11-18T23:45:37.941Z,4.47
2023-11-18T23:48:09.768Z,4.75
2023-11-18T23:50:38.241Z,4.20
2023-11-18T23:53:06.036Z,5.97
2023-11-18T23:55:33.838Z,4.30
2023-11-18T23:58:02.029Z,5.75
